Wetterstation Rottenburg Seebronn / 442m msl / http://mut-lambrecht.de
LETZTE AKTUALISIERUNG UM: 01:05 DATUM: Februar 24 2018, time of next update: 01:10
Aktuelles Wetterovercast/Night Aktuelle Temperatur -0.7°C (30.7°F), Apparent temp -4.4°C
Höchsttemperatur (seit Mitternacht)-0.5°C um: 00:00 Tiefsttemperatur (seit Mitternacht)-0.7°C um: 00:58
Windgeschwindigkeit (10 Minuten )10.0 kmh (5.4 kts) Windrichtung (Dir) (10 Minuten )ENE (78°)
Windchill Temperatur -4.1°C Windspitzen (letzte Std)25.9 kmh (14.0 kts) um: 00:27
Windspitzen (seit Mitternacht)25.9 kmh (14.0 kts) um: 00:29 Höchstes Windmittel / Minute (seit Mitternacht)14.8 kmh (8.0 kts) um: 00:17
Regenmenge (letzte Std)0.0 mm Regenmenge (seit Mitternacht)0.0 mm (0.00 in.)---
Regenmenge diesen Monat 18.3 mm (0.72 in.) Regenmenge seit Jahresbeginn 135.0 mm (5.31 in.)
Höchste Regenmenge pro Minute (letzte Std)0.0 mm/min Höchste Regenmenge pro Stunde (letzte 6 Std)0.0 mm/stunde
Regenmenge Gestern 0.0 mm Taupunkt -5.9°C (Wet Bulb :-2.4°C )
Luftfeuchtigkeit 68 %, Humidex -4.1°C Aktueller Luftdruck (auf Meereshöhe bezogen)1012.4 hPa
Luftdrucktendenz 0.1 hPa (letzte Std) Trend (letzte 1 Std)gleichbleibend
Luftdrucktendenz (letzte 12 Std)-1.2 hPa Luftdrucktendenz (letzte 6 Std)-0.2 hPa



Weather report/warning/Metars

Stuttgart-Echterdingen, Germany (EDDS) 48-41N 009-13E 391M
Feb 23, 2018 - 06:50 PM EST / 2018.02.23 2350 UTC
Wind: from the NE (050 degrees) at 15 MPH (13 KT):0
Visibility: greater than 7 mile(s):0
Sky conditions: overcast
Temperature: 30 F (-1 C)
Windchill: 19 F (-7 C):1
Dew Point: 21 F (-6 C)
Relative Humidity: 68%
Pressure (altimeter): 29.97 in. Hg (1015 hPa)
ob: EDDS 232350Z 05013KT 9999 OVC027 M01/M06 Q1015
cycle: 0
Karlsruhe, Baden Wurttemberg, Germany (EDSB) 48-46-43N 008-04-47E
Feb 23, 2018 - 06:50 PM EST / 2018.02.23 2350 UTC
Wind: from the NNE (030 degrees) at 17 MPH (15 KT):0
Visibility: greater than 7 mile(s):0
Sky conditions: mostly cloudy
Temperature: 30 F (-1 C)
Windchill: 17 F (-8 C):1
Dew Point: 19 F (-7 C)
Relative Humidity: 63%
Pressure (altimeter): 30.00 in. Hg (1016 hPa)
ob: EDSB 232350Z AUTO 03015KT 9999 BKN038/// M01/M07 Q1016
cycle: 0
Lahr, CAN-AFB, Germany (EDTL) 48-22-09N 007-49-40E
Feb 23, 2018 - 01:50 PM EST / 2018.02.23 1850 UTC
Wind: from the ENE (070 degrees) at 8 MPH (7 KT):0
Visibility: greater than 7 mile(s):0
Sky conditions: mostly cloudy
Temperature: 35 F (2 C)
Windchill: 28 F (-2 C):1
Dew Point: 21 F (-6 C)
Relative Humidity: 55%
Pressure (altimeter): 29.97 in. Hg (1015 hPa)
ob: EDTL 231850Z 07007KT 9999 BKN036 02/M06 Q1015
cycle: 19
Laupheim, Germany (ETHL) 48-13N 009-55E 550M
Feb 23, 2018 - 06:20 PM EST / 2018.02.23 2320 UTC
Wind: from the ENE (070 degrees) at 17 MPH (15 KT):0
Visibility: 4 mile(s):0
Sky conditions: overcast
Temperature: 26 F (-3 C)
Windchill: 14 F (-10 C):1
Dew Point: 21 F (-6 C)
Relative Humidity: 79%
Pressure (altimeter): 29.91 in. Hg (1013 hPa)
ob: ETHL 232320Z 07015KT 8000 OVC018 M03/M06 Q1013 WHT
cycle: 23


Klicken Sie hier, um zu den Durchschnitts-, Extrem-, Monats- oder Tageswerten zu gelangen


Die Wetterdaten werden alle 5 Minuten aktualisiert.
Die untere höherauflösende Windgrafik wird jede Minute aktualisiert.
Bei der Windgrafik sind derzeit die Skalenfarben von Durchschnitt/Böe vertauscht

Drücken Sie gegebenenfalls auf "Aktualisieren" in Ihrem Browser, um die aktuellsten Daten zu erhalten.